Time;durP1;ratioP1;P1;durP2;ratioP2;P2;SDS_P1;SDS_P2;PMS_P1;PMS_P2;Temp;Humidity;BMP_temperature;BMP_pressure;BME280_temperature;BME280_humidity;BME280_pressure;Samples;Min_cycle;Max_cycle;Signal;HPM_P1;HPM_P2
2021/09/27 00:00:29;;;;;;;0.70;0.70;;;;;;;16.22;100.00;2376.81;6225996;22;20406;-70
2021/09/27 00:02:58;;;;;;;0.80;0.80;;;;;;;16.34;100.00;2449.38;6250814;22;20866;-71
2021/09/27 00:05:27;;;;;;;0.80;0.70;;;;;;;16.38;100.00;2457.47;6251363;22;20389;-71
2021/09/27 00:07:53;;;;;;;0.80;0.73;;;;;;;16.49;100.00;2433.09;6251330;22;20521;-71
2021/09/27 00:10:24;;;;;;;0.80;0.80;;;;;;;16.51;100.00;2059.00;6251153;22;20400;-71
2021/09/27 00:12:51;;;;;;;0.83;0.83;;;;;;;16.46;100.00;1208.28;6278799;22;20409;-71
2021/09/27 00:15:22;;;;;;;0.90;0.90;;;;;;;16.48;100.00;645.94;6277907;22;20836;-71
2021/09/27 00:17:50;;;;;;;1.47;1.23;;;;;;;16.50;100.00;175.31;6277919;22;20962;-71
2021/09/27 00:20:19;;;;;;;1.20;1.13;;;;;;;16.42;100.00;-262.81;6250882;22;20484;-71
2021/09/27 00:22:48;;;;;;;0.70;0.60;;;;;;;16.32;100.00;-942.56;6226158;22;20423;-71
2021/09/27 00:25:17;;;;;;;0.80;0.77;;;;;;;16.32;100.00;-1181.56;6251208;22;20892;-71
2021/09/27 00:27:44;;;;;;;0.70;0.70;;;;;;;16.28;100.00;-1771.66;6251460;22;20439;-71
2021/09/27 00:30:13;;;;;;;0.80;0.70;;;;;;;16.31;100.00;-2213.88;6278192;22;20895;-71
2021/09/27 00:32:41;;;;;;;1.50;1.40;;;;;;;16.25;100.00;-2595.31;6250637;22;20431;-71
2021/09/27 00:35:10;;;;;;;0.80;0.70;;;;;;;16.37;100.00;-2788.19;6250495;22;20835;-72
2021/09/27 00:37:38;;;;;;;1.30;1.20;;;;;;;16.31;100.00;-3454.19;6251383;22;20464;-71
2021/09/27 00:40:09;;;;;;;0.70;0.70;;;;;;;16.28;100.00;-3980.16;6277997;22;20468;-73
2021/09/27 00:42:36;;;;;;;0.70;0.70;;;;;;;16.24;100.00;-4648.22;6277715;22;20367;-73
2021/09/27 00:45:07;;;;;;;0.70;0.70;;;;;;;16.22;100.00;-5204.38;6251703;22;20854;-74
2021/09/27 00:47:34;;;;;;;0.80;0.70;;;;;;;16.23;100.00;-5554.81;6278804;22;20372;-73
2021/09/27 00:50:02;;;;;;;2.17;2.00;;;;;;;16.34;100.00;-5948.66;6279628;22;20393;-73
2021/09/27 00:52:29;;;;;;;0.70;0.70;;;;;;;16.42;100.00;-6540.56;6277646;22;20401;-72
2021/09/27 00:54:59;;;;;;;0.70;0.60;;;;;;;16.56;100.00;-6873.75;6278274;22;20399;-72
2021/09/27 00:57:27;;;;;;;0.70;0.70;;;;;;;16.55;100.00;-7368.84;6278271;22;20419;-73
2021/09/27 00:59:56;;;;;;;0.70;0.70;;;;;;;16.63;100.00;-7574.94;6250514;22;20926;-73
2021/09/27 01:02:25;;;;;;;0.70;0.60;;;;;;;16.54;100.00;-8173.53;6278057;22;20756;-73
2021/09/27 01:04:53;;;;;;;0.70;0.60;;;;;;;16.59;100.00;-8574.97;6251645;22;20414;-72
2021/09/27 01:07:30;;;;;;;0.77;0.70;;;;;;;16.65;100.00;-8753.03;6251262;22;20747;-73
2021/09/27 01:10:14;;;;;;;0.70;0.70;;;;;;;16.62;100.00;-9004.09;6278266;22;20839;-73
2021/09/27 01:13:17;;;;;;;0.80;0.70;;;;;;;16.49;100.00;-9294.94;6250958;22;20394;-72
2021/09/27 01:15:52;;;;;;;0.70;0.70;;;;;;;16.46;100.00;-9589.00;6249991;22;20868;-74
2021/09/27 01:18:31;;;;;;;1.33;1.00;;;;;;;16.47;100.00;-9665.13;6249784;22;20430;-73
2021/09/27 01:21:11;;;;;;;0.90;0.90;;;;;;;16.38;100.00;-10057.53;6225425;22;20494;-73
2021/09/27 01:24:18;;;;;;;0.70;0.70;;;;;;;16.32;100.00;-10333.41;6250466;22;20425;-73
2021/09/27 01:27:09;;;;;;;0.70;0.60;;;;;;;16.31;100.00;-10553.94;6251169;22;20915;-73
2021/09/27 01:30:12;;;;;;;0.70;0.70;;;;;;;16.29;100.00;-10789.50;6249720;22;20552;-72
2021/09/27 01:32:44;;;;;;;0.80;0.70;;;;;;;16.19;100.00;-11143.38;6277456;22;20734;-73
2021/09/27 01:35:30;;;;;;;0.70;0.70;;;;;;;16.21;100.00;-11599.75;6277424;22;20456;-73
2021/09/27 01:38:14;;;;;;;0.70;0.70;;;;;;;16.28;100.00;-11864.19;6250349;22;20450;-73
2021/09/27 01:40:54;;;;;;;0.70;0.60;;;;;;;16.36;100.00;-11991.84;6277104;22;20375;-73
2021/09/27 01:43:26;;;;;;;0.70;0.70;;;;;;;16.28;100.00;-12274.75;6277265;22;20374;-73
2021/09/27 01:45:58;;;;;;;0.80;0.80;;;;;;;16.35;100.00;-12448.00;6277341;22;20371;-73
2021/09/27 01:48:34;;;;;;;0.70;0.67;;;;;;;16.31;100.00;-12640.03;6277053;22;20364;-72
2021/09/27 01:51:08;;;;;;;0.70;0.70;;;;;;;16.30;100.00;-12677.91;6277573;22;20434;-73
2021/09/27 01:53:40;;;;;;;0.70;0.60;;;;;;;16.35;100.00;-12901.59;6224822;22;20477;-73
2021/09/27 01:56:12;;;;;;;0.77;0.70;;;;;;;16.47;100.00;-13047.69;6277426;22;20439;-73
2021/09/27 01:58:51;;;;;;;0.70;0.70;;;;;;;16.53;100.00;-13139.78;6250151;22;20428;-73
2021/09/27 02:01:25;;;;;;;0.70;0.70;;;;;;;16.50;100.00;-13387.69;6277546;22;20373;-73
2021/09/27 02:03:59;;;;;;;0.70;0.63;;;;;;;16.53;100.00;-13530.06;6277221;22;20380;-74
2021/09/27 02:06:31;;;;;;;0.80;0.70;;;;;;;16.49;100.00;-13519.25;6250195;22;20429;-73
2021/09/27 02:09:05;;;;;;;0.70;0.60;;;;;;;16.47;100.00;-13691.25;6277339;22;20405;-73
2021/09/27 02:11:35;;;;;;;0.80;0.77;;;;;;;16.39;100.00;-13781.38;6249439;22;20857;-73
2021/09/27 02:14:07;;;;;;;0.70;0.70;;;;;;;16.29;100.00;-14068.56;6249700;22;20452;-73
2021/09/27 02:16:40;;;;;;;1.20;1.10;;;;;;;16.21;100.00;-14345.84;6250239;22;20428;-73
2021/09/27 02:19:16;;;;;;;0.70;0.67;;;;;;;16.12;100.00;-14617.78;6277081;22;20733;-72
2021/09/27 02:21:48;;;;;;;0.70;0.60;;;;;;;16.07;100.00;-14966.25;6224775;22;20869;-73
2021/09/27 02:24:23;;;;;;;0.70;0.70;;;;;;;16.05;100.00;-15335.44;6276430;22;20401;-72
2021/09/27 02:26:53;;;;;;;0.80;0.70;;;;;;;16.06;100.00;-15522.88;6251147;22;20374;-73
2021/09/27 02:29:21;;;;;;;0.70;0.70;;;;;;;16.01;100.00;-16053.41;6277077;22;20371;-73
2021/09/27 02:32:01;;;;;;;1.47;1.37;;;;;;;15.99;100.00;-16333.75;6276328;22;20387;-73
2021/09/27 02:34:35;;;;;;;0.70;0.60;;;;;;;15.93;100.00;-16246.75;6224619;22;20405;-73
2021/09/27 02:37:09;;;;;;;1.17;1.00;;;;;;;15.88;100.00;-16040.91;6277112;22;20373;-73
2021/09/27 02:39:41;;;;;;;0.70;0.70;;;;;;;15.88;100.00;-16258.44;6223832;22;20384;-73
2021/09/27 02:42:17;;;;;;;0.70;0.60;;;;;;;15.85;100.00;-16571.47;6249636;22;20783;-72
2021/09/27 02:44:46;;;;;;;0.80;0.80;;;;;;;15.79;100.00;-16706.72;6277747;22;20430;-73
2021/09/27 02:47:21;;;;;;;0.70;0.70;;;;;;;15.76;100.00;-16923.53;6250729;22;20382;-74
2021/09/27 02:49:55;;;;;;;0.87;0.87;;;;;;;15.68;100.00;-17040.81;6277825;22;20407;-72
2021/09/27 02:52:23;;;;;;;0.70;0.60;;;;;;;15.64;100.00;-17318.13;6249696;22;20459;-73
2021/09/27 02:54:55;;;;;;;0.80;0.70;;;;;;;15.68;100.00;-17488.22;6276762;22;20749;-72
2021/09/27 02:58:01;;;;;;;0.93;0.90;;;;;;;15.96;100.00;-17534.53;6276604;22;20817;-73
2021/09/27 03:00:35;;;;;;;0.90;0.90;;;;;;;16.02;100.00;-17781.22;6242419;22;20416;-72
2021/09/27 03:03:12;;;;;;;0.70;0.60;;;;;;;16.04;100.00;-17915.59;6276547;22;20457;-72
2021/09/27 03:05:56;;;;;;;1.30;0.90;;;;;;;15.96;100.00;-18090.78;6277003;22;20698;-72
2021/09/27 03:08:40;;;;;;;0.77;0.77;;;;;;;15.87;100.00;-18286.16;6276306;22;20489;-73
2021/09/27 03:11:38;;;;;;;0.70;0.70;;;;;;;15.83;100.00;-18391.28;6276213;22;20439;-73
2021/09/27 03:14:18;;;;;;;0.70;0.60;;;;;;;15.69;100.00;-18724.25;6249759;22;20370;-72
2021/09/27 03:16:51;;;;;;;0.80;0.73;;;;;;;15.64;100.00;-18872.13;6224248;22;20780;-73
2021/09/27 03:19:34;;;;;;;1.07;0.97;;;;;;;15.60;100.00;-19202.06;6248670;22;20434;-72
2021/09/27 03:22:11;;;;;;;0.80;0.70;;;;;;;15.58;100.00;-19396.09;6249402;22;20404;-73
2021/09/27 03:24:49;;;;;;;0.93;0.93;;;;;;;15.58;100.00;-19570.47;6276520;22;20372;-73
2021/09/27 03:27:29;;;;;;;0.80;0.80;;;;;;;15.58;100.00;-19805.34;6276227;22;20414;-73
2021/09/27 03:30:06;;;;;;;0.80;0.80;;;;;;;15.61;100.00;-19929.84;6248868;22;20400;-72
2021/09/27 03:32:50;;;;;;;0.80;0.70;;;;;;;15.58;100.00;-20153.72;6276393;22;20459;-73
2021/09/27 03:35:24;;;;;;;0.70;0.60;;;;;;;15.64;100.00;-20344.66;6248759;22;20374;-73
2021/09/27 03:38:02;;;;;;;0.70;0.70;;;;;;;15.77;100.00;-20550.13;6275906;22;20474;-73
2021/09/27 03:40:51;;;;;;;1.30;1.20;;;;;;;15.69;100.00;-20856.22;6276684;22;20373;-73
2021/09/27 03:43:25;;;;;;;0.70;0.70;;;;;;;15.66;100.00;-21079.97;6224422;22;20400;-72
2021/09/27 03:46:03;;;;;;;0.70;0.60;;;;;;;15.63;100.00;-21106.28;6249167;22;20475;-73
2021/09/27 03:48:38;;;;;;;0.70;0.70;;;;;;;15.62;100.00;-21106.00;6275919;22;20366;-73
2021/09/27 03:51:14;;;;;;;0.70;0.60;;;;;;;15.66;100.00;-21107.13;6249519;22;20405;-73
2021/09/27 03:53:51;;;;;;;0.70;0.70;;;;;;;15.66;100.00;-21107.25;6275713;22;20401;-73
2021/09/27 03:56:26;;;;;;;0.70;0.70;;;;;;;15.70;100.00;-21108.22;6275762;22;20372;-72
2021/09/27 03:59:00;;;;;;;0.90;0.90;;;;;;;15.84;100.00;-21111.94;6247500;22;20503;-73
2021/09/27 04:01:38;;;;;;;0.70;0.70;;;;;;;16.00;100.00;-21116.31;6275432;22;20899;-73
2021/09/27 04:04:19;;;;;;;0.70;0.70;;;;;;;16.04;100.00;-21117.28;6247923;22;20398;-74
2021/09/27 04:06:58;;;;;;;0.70;0.70;;;;;;;16.08;100.00;-21118.38;6274858;22;20435;-73
2021/09/27 04:09:34;;;;;;;0.70;0.60;;;;;;;16.06;100.00;-21117.97;6275444;22;20473;-73
2021/09/27 04:12:11;;;;;;;0.70;0.60;;;;;;;16.18;100.00;-21121.13;6275969;22;20398;-74
2021/09/27 04:14:51;;;;;;;0.80;0.80;;;;;;;16.28;100.00;-21123.88;6249288;22;20714;-72
2021/09/27 04:17:31;;;;;;;0.70;0.70;;;;;;;16.46;100.00;-21128.69;6276363;22;20377;-73
2021/09/27 04:20:07;;;;;;;0.90;0.90;;;;;;;16.51;100.00;-21129.91;6224566;22;20426;-72
2021/09/27 04:22:37;;;;;;;0.70;0.67;;;;;;;16.58;100.00;-21036.53;6248485;22;20491;-73
2021/09/27 04:25:17;;;;;;;1.53;1.00;;;;;;;16.61;100.00;-20938.59;6249091;22;20504;-73
2021/09/27 04:28:09;;;;;;;0.70;0.60;;;;;;;16.58;100.00;-20801.38;6249471;22;20371;-73
2021/09/27 04:30:52;;;;;;;0.70;0.67;;;;;;;16.60;100.00;-20703.28;6275949;22;20368;-74
2021/09/27 04:33:36;;;;;;;0.70;0.70;;;;;;;16.69;100.00;-20500.56;6248785;22;20868;-74
2021/09/27 04:36:16;;;;;;;0.80;0.80;;;;;;;16.68;100.00;-20333.47;6249329;22;20375;-73
2021/09/27 04:38:44;;;;;;;1.73;1.63;;;;;;;16.63;100.00;-20193.19;6275695;22;20469;-73
2021/09/27 04:41:48;;;;;;;0.70;0.70;;;;;;;16.66;100.00;-20026.88;6249112;22;20856;-73
2021/09/27 04:44:39;;;;;;;1.17;1.07;;;;;;;16.66;100.00;-19746.09;6225625;22;20409;-73
2021/09/27 04:47:12;;;;;;;0.70;0.70;;;;;;;16.76;100.00;-19627.03;6277674;22;20901;-73
2021/09/27 04:49:58;;;;;;;1.10;1.00;;;;;;;16.89;100.00;-19377.19;6277865;22;20404;-73
2021/09/27 04:52:36;;;;;;;0.70;0.67;;;;;;;16.89;100.00;-19167.09;6278149;22;20443;-74
2021/09/27 04:55:22;;;;;;;1.10;1.00;;;;;;;17.02;100.00;-18899.34;6251342;22;20418;-72
2021/09/27 04:58:06;;;;;;;0.70;0.60;;;;;;;17.04;100.00;-18778.16;6250657;22;20760;-73
2021/09/27 05:00:50;;;;;;;0.70;0.67;;;;;;;17.06;100.00;-18619.13;6277967;22;20738;-73
2021/09/27 05:03:37;;;;;;;0.70;0.60;;;;;;;17.14;100.00;-18491.81;6276952;22;20370;-73
2021/09/27 05:06:23;;;;;;;0.90;0.90;;;;;;;17.12;100.00;-18410.31;6277589;22;20377;-73
2021/09/27 05:09:06;;;;;;;0.70;0.70;;;;;;;17.05;100.00;-18330.19;6251246;22;20406;-73
2021/09/27 05:12:03;;;;;;;0.80;0.80;;;;;;;17.12;100.00;-18309.00;6277862;22;20377;-73
2021/09/27 05:14:57;;;;;;;0.70;0.60;;;;;;;17.17;100.00;-18279.75;6274716;22;20407;-73
2021/09/27 05:17:38;;;;;;;0.70;0.63;;;;;;;17.20;100.00;-18361.38;6276667;22;20373;-73
2021/09/27 05:20:35;;;;;;;0.70;0.70;;;;;;;17.26;100.00;-18514.84;6249835;22;20431;-73
2021/09/27 05:23:21;;;;;;;0.70;0.60;;;;;;;17.23;100.00;-18734.53;6226393;22;20445;-72
2021/09/27 05:26:17;;;;;;;0.70;0.60;;;;;;;17.18;100.00;-18963.81;6227734;22;20833;-74
2021/09/27 05:29:00;;;;;;;0.70;0.70;;;;;;;17.12;100.00;-19276.38;6225733;22;20749;-73
2021/09/27 05:31:58;;;;;;;1.30;1.20;;;;;;;16.92;100.00;-19501.84;6277430;22;20368;-74
2021/09/27 05:34:39;;;;;;;0.80;0.80;;;;;;;16.82;100.00;-19633.72;6277260;22;20374;-73
2021/09/27 05:37:31;;;;;;;0.83;0.83;;;;;;;16.83;100.00;-19674.34;6251482;22;20439;-73
2021/09/27 05:40:20;;;;;;;0.90;0.90;;;;;;;16.70;100.00;-19855.88;6251133;22;20421;-73
2021/09/27 05:43:21;;;;;;;0.70;0.60;;;;;;;16.59;100.00;-19835.38;6225027;22;20520;-73
2021/09/27 05:46:06;;;;;;;0.70;0.70;;;;;;;16.61;100.00;-19810.59;6249840;22;20414;-73
2021/09/27 05:48:44;;;;;;;1.10;1.00;;;;;;;16.53;100.00;-19823.88;6202831;22;20776;-75
2021/09/27 05:51:25;;;;;;;0.70;0.60;;;;;;;16.52;100.00;-19722.47;6250768;22;20374;-74
2021/09/27 05:54:10;;;;;;;0.70;0.63;;;;;;;16.58;100.00;-19713.72;6225836;22;20429;-73
2021/09/27 05:56:52;;;;;;;0.70;0.60;;;;;;;16.56;100.00;-19809.34;6277155;22;20378;-74
2021/09/27 05:59:37;;;;;;;0.70;0.67;;;;;;;16.46;100.00;-19751.16;6277223;22;20432;-73
2021/09/27 06:02:22;;;;;;;0.70;0.60;;;;;;;16.49;100.00;-19655.81;6251183;22;20419;-73
2021/09/27 06:05:13;;;;;;;0.70;0.70;;;;;;;16.55;100.00;-19583.97;6226012;22;20459;-73
2021/09/27 06:07:53;;;;;;;0.70;0.60;;;;;;;16.54;100.00;-19659.72;6227279;22;20437;-73
2021/09/27 06:10:38;;;;;;;0.70;0.60;;;;;;;16.58;100.00;-19589.78;6250504;22;20367;-73
2021/09/27 06:13:20;;;;;;;0.70;0.70;;;;;;;16.60;100.00;-19605.44;6251309;22;20406;-73
2021/09/27 06:15:59;;;;;;;0.70;0.60;;;;;;;16.65;100.00;-19624.53;6251871;22;20429;-73
2021/09/27 06:18:50;;;;;;;0.80;0.80;;;;;;;16.73;100.00;-19646.66;6249447;22;20418;-74
2021/09/27 06:21:46;;;;;;;0.80;0.80;;;;;;;16.90;100.00;-19845.66;6277477;22;20705;-72
2021/09/27 06:24:29;;;;;;;0.70;0.60;;;;;;;16.89;100.00;-20293.31;6250851;22;20406;-73
2021/09/27 06:27:04;;;;;;;0.70;0.70;;;;;;;17.00;100.00;-20579.47;6250771;22;20476;-73
2021/09/27 06:29:39;;;;;;;0.70;0.60;;;;;;;17.13;100.00;-21020.75;6275464;22;20828;-73
2021/09/27 06:32:14;;;;;;;0.90;0.90;;;;;;;17.28;100.00;-21150.78;6250346;22;20435;-74
2021/09/27 06:34:47;;;;;;;1.17;1.07;;;;;;;17.42;100.00;-21154.34;6251137;22;20377;-73
2021/09/27 06:37:19;;;;;;;0.70;0.70;;;;;;;17.44;100.00;-21154.91;6251125;22;20870;-73
2021/09/27 06:39:47;;;;;;;0.70;0.67;;;;;;;17.58;100.00;-21158.88;6277410;22;20413;-73
2021/09/27 06:42:14;;;;;;;0.70;0.70;;;;;;;17.68;100.00;-21161.47;6250552;22;20413;-73
2021/09/27 06:44:45;;;;;;;0.70;0.60;;;;;;;17.77;100.00;-21163.94;6277227;22;20447;-73
2021/09/27 06:47:13;;;;;;;0.80;0.80;;;;;;;17.85;100.00;-21166.00;6277248;22;20390;-73
2021/09/27 06:49:40;;;;;;;0.80;0.80;;;;;;;17.87;100.00;-21166.56;6277471;22;20386;-73
2021/09/27 06:52:08;;;;;;;0.70;0.70;;;;;;;17.82;100.00;-21165.31;6250278;22;20471;-73
2021/09/27 06:54:37;;;;;;;0.90;0.90;;;;;;;17.77;100.00;-21163.81;6277512;22;20374;-73
2021/09/27 06:57:04;;;;;;;0.70;0.60;;;;;;;17.68;100.00;-21161.34;6250408;22;20782;-72
2021/09/27 06:59:31;;;;;;;0.70;0.70;;;;;;;17.71;100.00;-21162.28;6250033;22;20466;-73
2021/09/27 07:02:18;;;;;;;0.73;0.70;;;;;;;17.74;100.00;-21163.13;6253119;22;20374;-73
2021/09/27 07:04:47;;;;;;;0.70;0.60;;;;;;;17.82;100.00;-21165.19;6249470;22;20406;-73
2021/09/27 07:07:15;;;;;;;0.80;0.80;;;;;;;17.88;100.00;-21166.69;6276791;22;20414;-72
2021/09/27 07:09:48;;;;;;;0.70;0.70;;;;;;;17.98;100.00;-21169.44;6225278;22;20867;-73
2021/09/27 07:12:16;;;;;;;1.30;1.20;;;;;;;18.19;100.00;-21175.19;6276334;22;20868;-73
2021/09/27 07:14:44;;;;;;;1.27;1.17;;;;;;;18.29;100.00;-21177.78;6276810;22;20460;-72
2021/09/27 07:17:12;;;;;;;0.70;0.70;;;;;;;18.35;100.00;-21179.56;6277274;22;20424;-72
2021/09/27 07:19:42;;;;;;;0.87;0.87;;;;;;;18.52;100.00;-21184.09;6249948;22;20428;-72
2021/09/27 07:22:21;;;;;;;0.70;0.70;;;;;;;18.67;100.00;-21187.91;6276023;22;20397;-73
2021/09/27 07:24:50;;;;;;;0.70;0.70;;;;;;;18.76;100.00;-21190.53;6276684;22;20703;-73
2021/09/27 07:27:17;;;;;;;0.73;0.70;;;;;;;18.66;100.00;-21187.78;6249927;22;20389;-73
2021/09/27 07:29:44;;;;;;;0.70;0.60;;;;;;;18.63;100.00;-21186.81;6249376;22;20962;-73
2021/09/27 07:32:10;;;;;;;0.70;0.70;;;;;;;18.69;100.00;-21188.59;6224868;22;20398;-72
2021/09/27 07:34:41;;;;;;;0.70;0.60;;;;;;;18.74;100.00;-21189.97;6276897;22;20373;-73
2021/09/27 07:37:08;;;;;;;2.90;1.37;;;;;;;18.70;100.00;-21188.88;6250266;22;20402;-74
2021/09/27 07:39:35;;;;;;;1.00;0.90;;;;;;;18.60;100.00;-21186.13;6248642;22;20487;-73
2021/09/27 07:42:04;;;;;;;0.80;0.80;;;;;;;18.54;100.00;-21184.50;6249717;22;20433;-72
2021/09/27 07:44:33;;;;;;;0.77;0.70;;;;;;;18.74;100.00;-21189.97;6249151;22;20403;-72
2021/09/27 07:47:00;;;;;;;0.80;0.70;;;;;;;18.89;100.00;-21193.81;6277334;22;20470;-72
2021/09/27 07:49:27;;;;;;;0.70;0.70;;;;;;;19.22;100.00;-21202.84;6250235;22;20765;-73
2021/09/27 07:51:57;;;;;;;0.70;0.70;;;;;;;19.39;100.00;-21207.22;6250070;22;20394;-73
2021/09/27 07:54:26;;;;;;;0.70;0.60;;;;;;;19.99;100.00;-21223.47;6249611;22;20411;-73
2021/09/27 07:56:53;;;;;;;0.90;0.90;;;;;;;20.42;100.00;-21234.81;6249678;22;20599;-73
2021/09/27 07:59:22;;;;;;;0.80;0.70;;;;;;;20.90;100.00;-21247.66;6248960;22;20461;-73
2021/09/27 08:01:51;;;;;;;0.80;0.70;;;;;;;21.19;100.00;-21255.56;6276586;22;20700;-73
2021/09/27 08:04:19;;;;;;;0.70;0.60;;;;;;;21.18;100.00;-21255.28;6249204;22;20407;-73
2021/09/27 08:06:47;;;;;;;0.80;0.70;;;;;;;21.00;100.00;-21250.38;6277394;22;20414;-73
2021/09/27 08:09:14;;;;;;;1.07;0.97;;;;;;;21.10;100.00;-21253.09;6277183;22;20381;-73
2021/09/27 08:11:43;;;;;;;2.20;0.80;;;;;;;20.87;100.00;-21246.84;6250423;22;20905;-73
2021/09/27 08:14:10;;;;;;;0.77;0.70;;;;;;;20.82;100.00;-21245.47;6275815;22;20346;-73
2021/09/27 08:16:44;;;;;;;0.70;0.60;;;;;;;20.75;100.00;-21243.69;6249369;22;20405;-73
2021/09/27 08:19:11;;;;;;;0.70;0.63;;;;;;;20.87;100.00;-21246.97;6226100;22;20399;-73
2021/09/27 08:21:39;;;;;;;1.93;1.77;;;;;;;21.41;100.00;-21261.44;6278962;22;20349;-73
2021/09/27 08:24:06;;;;;;;0.80;0.70;;;;;;;21.71;100.00;-21269.47;6225377;22;20408;-71
2021/09/27 08:26:33;;;;;;;0.70;0.60;;;;;;;21.73;100.00;-21269.75;6278466;22;20430;-73
2021/09/27 08:29:02;;;;;;;1.17;1.00;;;;;;;21.52;100.00;-21264.16;6277364;22;20721;-74
2021/09/27 08:31:33;;;;;;;1.20;1.10;;;;;;;21.20;100.00;-21255.84;6252575;22;20387;-73
2021/09/27 08:34:04;;;;;;;1.00;0.90;;;;;;;21.20;100.00;-21255.84;6277783;22;20402;-73
2021/09/27 08:36:36;;;;;;;0.80;0.80;;;;;;;21.42;100.00;-21261.56;6252944;22;20349;-73
2021/09/27 08:39:05;;;;;;;0.70;0.60;;;;;;;21.85;100.00;-21273.03;6251310;22;20480;-73
2021/09/27 08:41:48;;;;;;;0.70;0.60;;;;;;;22.37;100.00;-21287.06;6251524;22;20425;-73
2021/09/27 08:44:41;;;;;;;0.70;0.60;;;;;;;22.72;100.00;-21296.31;6250779;22;20778;-71
2021/09/27 08:47:17;;;;;;;0.80;0.70;;;;;;;22.85;100.00;-21299.84;6275370;22;20843;-73
2021/09/27 08:49:51;;;;;;;0.73;0.67;;;;;;;22.56;100.00;-21292.09;6252101;22;20349;-71
2021/09/27 08:52:21;;;;;;;0.70;0.60;;;;;;;22.39;100.00;-21287.47;6277406;22;20421;-74
2021/09/27 08:54:51;;;;;;;2.50;0.90;;;;;;;22.31;100.00;-21285.41;6252443;22;20363;-74
2021/09/27 08:57:42;;;;;;;0.70;0.60;;;;;;;22.83;100.00;-21299.16;6277941;22;20371;-73
2021/09/27 09:00:34;;;;;;;0.80;0.60;;;;;;;23.51;100.00;-21317.41;6250363;22;20729;-74
2021/09/27 09:03:13;;;;;;;0.77;0.60;;;;;;;24.24;100.00;-21336.69;6278011;22;20407;-73
2021/09/27 09:05:52;;;;;;;0.80;0.70;;;;;;;24.73;100.00;-21349.72;6277983;22;20371;-72
2021/09/27 09:08:26;;;;;;;0.70;0.60;;;;;;;24.72;100.00;-21349.44;6278366;22;20414;-72
2021/09/27 09:10:59;;;;;;;0.70;0.60;;;;;;;24.29;100.00;-21338.03;6251064;22;20430;-73
2021/09/27 09:13:33;;;;;;;0.70;0.60;;;;;;;24.51;100.00;-21343.88;6251158;22;20899;-73
2021/09/27 09:16:05;;;;;;;0.73;0.60;;;;;;;24.51;100.00;-21344.03;6251120;22;20488;-73
2021/09/27 09:18:37;;;;;;;1.07;0.97;;;;;;;24.33;100.00;-21339.13;6251422;22;20371;-73
2021/09/27 09:21:12;;;;;;;0.70;0.50;;;;;;;25.06;100.00;-21358.69;6276997;22;20935;-73
2021/09/27 09:23:45;;;;;;;0.70;0.50;;;;;;;25.05;100.00;-21358.28;6278557;22;20406;-72
2021/09/27 09:26:15;;;;;;;0.70;0.50;;;;;;;25.89;100.00;-21380.63;6278268;22;20454;-72
2021/09/27 09:28:45;;;;;;;0.70;0.60;;;;;;;25.99;100.00;-21383.34;6277511;22;20765;-70
2021/09/27 09:31:17;;;;;;;0.70;0.60;;;;;;;25.74;100.00;-21376.56;6250775;22;20433;-71
2021/09/27 09:33:49;;;;;;;0.70;0.57;;;;;;;25.84;100.00;-21379.16;6278603;22;20829;-70
2021/09/27 09:36:22;;;;;;;0.70;0.50;;;;;;;25.18;100.00;-21361.66;6278699;22;20376;-72
2021/09/27 09:38:50;;;;;;;0.70;0.50;;;;;;;24.78;100.00;-21351.06;6251160;22;20480;-72
2021/09/27 09:41:17;;;;;;;0.80;0.70;;;;;;;25.18;100.00;-21361.66;6278294;22;20447;-73
2021/09/27 09:43:50;;;;;;;0.70;0.60;;;;;;;25.01;100.00;-21357.31;6278090;22;20475;-70
2021/09/27 09:46:30;;;;;;;0.73;0.63;;;;;;;24.22;100.00;-21336.16;6277706;22;20406;-72
2021/09/27 09:49:05;;;;;;;0.93;0.83;;;;;;;23.63;100.00;-21320.66;6278139;22;20393;-73
2021/09/27 09:51:39;;;;;;;0.70;0.60;;;;;;;23.94;100.00;-21328.81;6278200;22;20374;-72
2021/09/27 09:54:18;;;;;;;0.70;0.60;;;;;;;24.28;100.00;-21337.91;6251109;22;20930;-72
2021/09/27 09:56:58;;;;;;;0.73;0.60;;;;;;;24.44;100.00;-21342.13;6250567;22;20414;-72
2021/09/27 09:59:33;;;;;;;0.70;0.60;;;;;;;25.13;100.00;-21360.31;6249363;22;20699;-71
2021/09/27 10:02:03;;;;;;;0.90;0.80;;;;;;;25.95;100.00;-21382.13;6253012;22;20424;-72
2021/09/27 10:04:38;;;;;;;0.70;0.50;;;;;;;25.93;100.00;-21381.72;6252063;22;20379;-71
2021/09/27 10:07:12;;;;;;;0.70;0.60;;;;;;;25.51;100.00;-21370.47;6279324;22;20390;-72
2021/09/27 10:09:55;;;;;;;0.70;0.60;;;;;;;25.17;100.00;-21361.41;6252775;22;20860;-72
2021/09/27 10:12:40;;;;;;;0.70;0.60;;;;;;;24.72;100.00;-21349.44;6278855;22;20724;-72
2021/09/27 10:15:08;;;;;;;0.70;0.60;;;;;;;24.22;100.00;-21336.16;6277614;22;20379;-71
2021/09/27 10:18:02;;;;;;;0.80;0.70;;;;;;;23.49;100.00;-21316.72;6257538;22;20366;-72
2021/09/27 10:20:34;;;;;;;0.80;0.70;;;;;;;23.53;100.00;-21317.81;6278067;22;20418;-71
2021/09/27 10:23:11;;;;;;;0.70;0.70;;;;;;;22.91;100.00;-21301.34;6280132;22;20422;-73
2021/09/27 10:25:45;;;;;;;0.77;0.70;;;;;;;22.83;100.00;-21299.31;6278792;22;20379;-73
2021/09/27 10:28:16;;;;;;;0.80;0.70;;;;;;;22.56;100.00;-21292.09;6279998;22;20383;-74
2021/09/27 10:30:48;;;;;;;1.53;1.00;;;;;;;22.72;100.00;-21296.16;6252077;22;20403;-72
2021/09/27 10:33:24;;;;;;;1.10;1.00;;;;;;;22.97;100.00;-21302.97;6254354;22;20375;-73
2021/09/27 10:35:57;;;;;;;0.70;0.60;;;;;;;22.88;100.00;-21300.53;6251606;22;20385;-73
2021/09/27 10:38:30;;;;;;;0.70;0.60;;;;;;;23.01;100.00;-21303.94;6280030;22;20430;-73
2021/09/27 10:41:07;;;;;;;0.70;0.60;;;;;;;23.15;100.00;-21307.88;6228999;22;20430;-73
2021/09/27 10:43:35;;;;;;;0.70;0.60;;;;;;;23.07;100.00;-21305.69;6283195;22;20366;-73
2021/09/27 10:46:02;;;;;;;1.57;0.80;;;;;;;23.35;100.00;-21313.03;6253922;22;20741;-72
2021/09/27 10:48:30;;;;;;;1.57;1.47;;;;;;;23.58;100.00;-21319.16;6281930;22;20387;-75
2021/09/27 10:51:03;;;;;;;0.80;0.70;;;;;;;23.66;100.00;-21321.19;6255469;22;20462;-74
2021/09/27 10:53:36;;;;;;;0.70;0.60;;;;;;;23.59;100.00;-21319.56;6252925;22;20407;-73
2021/09/27 10:56:16;;;;;;;0.80;0.70;;;;;;;23.62;100.00;-21320.38;6278915;22;20379;-72
2021/09/27 10:58:53;;;;;;;0.80;0.70;;;;;;;23.60;100.00;-21319.84;6228145;22;20402;-72
2021/09/27 11:01:39;;;;;;;0.70;0.60;;;;;;;23.17;100.00;-21308.16;6252646;22;20389;-72
2021/09/27 11:04:11;;;;;;;0.70;0.60;;;;;;;23.03;100.00;-21304.63;6255574;22;20425;-73
2021/09/27 11:06:43;;;;;;;0.70;0.60;;;;;;;23.19;100.00;-21308.69;6254611;22;20379;-74
2021/09/27 11:09:18;;;;;;;0.70;0.67;;;;;;;23.43;100.00;-21315.22;6279841;22;20402;-73
2021/09/27 11:11:57;;;;;;;0.80;0.70;;;;;;;23.70;100.00;-21322.28;6252306;22;20379;-74
2021/09/27 11:14:32;;;;;;;0.70;0.60;;;;;;;24.08;100.00;-21332.63;6225415;22;20477;-73
2021/09/27 11:17:22;;;;;;;0.70;0.63;;;;;;;24.93;100.00;-21355.00;6279431;22;20691;-72
2021/09/27 11:20:03;;;;;;;0.70;0.60;;;;;;;24.99;100.00;-21356.78;6231626;22;20407;-73
2021/09/27 11:22:41;;;;;;;0.70;0.60;;;;;;;25.01;100.00;-21357.31;6250997;22;20427;-74
2021/09/27 11:25:33;;;;;;;0.70;0.60;;;;;;;24.42;100.00;-21341.59;6278224;22;20371;-73
2021/09/27 11:28:15;;;;;;;0.70;0.60;;;;;;;24.27;100.00;-21337.63;6279201;22;20379;-72
2021/09/27 11:30:45;;;;;;;0.70;0.60;;;;;;;24.10;100.00;-21333.16;6277709;22;20363;-73
2021/09/27 11:33:51;;;;;;;0.80;0.70;;;;;;;23.93;100.00;-21328.53;6277377;22;20390;-73
2021/09/27 11:36:51;;;;;;;0.70;0.60;;;;;;;24.04;100.00;-21331.38;6239975;22;20411;-72
2021/09/27 11:39:27;;;;;;;0.80;0.70;;;;;;;23.90;100.00;-21327.59;6249776;22;20423;-72
2021/09/27 11:42:31;;;;;;;0.70;0.60;;;;;;;23.70;100.00;-21322.44;6278455;22;20468;-72
2021/09/27 11:45:26;;;;;;;0.70;0.60;;;;;;;23.81;100.00;-21325.28;6248622;22;20381;-73
2021/09/27 11:48:05;;;;;;;0.70;0.60;;;;;;;23.71;100.00;-21322.56;6251900;22;20403;-73
2021/09/27 11:50:53;;;;;;;0.70;0.60;;;;;;;24.04;100.00;-21331.53;6277935;22;20402;-72
2021/09/27 11:53:29;;;;;;;0.70;0.60;;;;;;;23.91;100.00;-21328.00;6277611;22;20887;-73
2021/09/27 11:56:02;;;;;;;0.70;0.60;;;;;;;23.46;100.00;-21316.03;6279573;22;20383;-72
2021/09/27 11:58:38;;;;;;;0.70;0.60;;;;;;;23.37;100.00;-21313.59;6279633;22;20691;-73
2021/09/27 12:01:13;;;;;;;0.80;0.70;;;;;;;23.59;100.00;-21319.56;6252030;22;20426;-72